createdAt,value
2019-03-23T00:00:49.107Z,1029.29
2019-03-23T00:01:49.052Z,1029.28
2019-03-23T00:02:49.144Z,1029.28
2019-03-23T00:03:49.057Z,1029.3
2019-03-23T00:04:49.061Z,1029.29
2019-03-23T00:05:49.093Z,1029.33
2019-03-23T00:06:49.178Z,1029.34
2019-03-23T00:07:49.108Z,1029.3
2019-03-23T00:08:49.196Z,1029.27
2019-03-23T00:09:49.227Z,1029.26
2019-03-23T00:10:49.248Z,1029.27
2019-03-23T00:11:49.243Z,1029.26
2019-03-23T00:12:49.170Z,1029.29
2019-03-23T00:13:49.292Z,1029.27
2019-03-23T00:14:49.279Z,1029.29
2019-03-23T00:15:49.341Z,1029.28
2019-03-23T00:16:49.308Z,1029.26
2019-03-23T00:17:48.986Z,1029.29
2019-03-23T00:18:49.091Z,1029.31
2019-03-23T00:19:49.540Z,1029.3
2019-03-23T00:20:49.081Z,1029.33
2019-03-23T00:21:49.016Z,1029.32
2019-03-23T00:22:49.057Z,1029.33
2019-03-23T00:23:49.041Z,1029.36
2019-03-23T00:24:49.227Z,1029.36
2019-03-23T00:25:49.186Z,1029.38
2019-03-23T00:26:49.086Z,1029.37
2019-03-23T00:27:49.130Z,1029.4
2019-03-23T00:28:49.255Z,1029.36
2019-03-23T00:29:49.127Z,1029.34
2019-03-23T00:30:49.208Z,1029.38
2019-03-23T00:31:49.170Z,1029.4
2019-03-23T00:32:49.173Z,1029.39
2019-03-23T00:33:49.240Z,1029.36
2019-03-23T00:34:49.202Z,1029.35
2019-03-23T00:35:49.067Z,1029.36
2019-03-23T00:36:49.051Z,1029.34
2019-03-23T00:37:49.057Z,1029.4
2019-03-23T00:38:49.107Z,1029.37
2019-03-23T00:39:49.061Z,1029.36
2019-03-23T00:40:49.149Z,1029.38
2019-03-23T00:41:49.059Z,1029.36
2019-03-23T00:42:49.074Z,1029.38
2019-03-23T00:43:49.245Z,1029.39
2019-03-23T00:44:49.120Z,1029.37
2019-03-23T00:45:49.121Z,1029.37
2019-03-23T00:46:49.235Z,1029.35
2019-03-23T00:47:49.170Z,1029.38
2019-03-23T00:48:49.171Z,1029.34
2019-03-23T00:49:49.202Z,1029.36
2019-03-23T00:50:49.241Z,1029.35
2019-03-23T00:51:49.211Z,1029.37
2019-03-23T00:52:49.343Z,1029.33
2019-03-23T00:53:48.992Z,1029.37
2019-03-23T00:54:49.009Z,1029.39
2019-03-23T00:55:48.965Z,1029.4
2019-03-23T00:56:48.986Z,1029.37
2019-03-23T00:57:49.105Z,1029.42
2019-03-23T00:58:48.998Z,1029.42
2019-03-23T00:59:49.020Z,1029.36
2019-03-23T01:00:49.134Z,1029.41
2019-03-23T01:01:49.119Z,1029.4
2019-03-23T01:02:49.205Z,1029.42
2019-03-23T01:03:49.127Z,1029.41
2019-03-23T01:04:49.157Z,1029.39
2019-03-23T01:05:49.218Z,1029.41
2019-03-23T01:06:52.626Z,1029.39
2019-03-23T01:07:49.296Z,1029.39
2019-03-23T01:08:49.134Z,1029.4
2019-03-23T01:09:49.375Z,1029.43
2019-03-23T01:10:49.249Z,1029.39
2019-03-23T01:11:49.181Z,1029.41
2019-03-23T01:12:48.996Z,1029.42
2019-03-23T01:13:49.002Z,1029.42
2019-03-23T01:14:49.139Z,1029.43
2019-03-23T01:15:49.134Z,1029.4
2019-03-23T01:16:49.113Z,1029.42
2019-03-23T01:17:49.029Z,1029.39
2019-03-23T01:18:49.081Z,1029.42
2019-03-23T01:19:49.228Z,1029.42
2019-03-23T01:20:50.201Z,1029.38
2019-03-23T01:21:49.108Z,1029.36
2019-03-23T01:22:49.115Z,1029.33
2019-03-23T01:23:49.171Z,1029.35
2019-03-23T01:24:49.368Z,1029.35
2019-03-23T01:25:49.231Z,1029.32
2019-03-23T01:26:49.178Z,1029.33
2019-03-23T01:27:49.296Z,1029.35
2019-03-23T01:28:49.267Z,1029.3
2019-03-23T01:29:49.270Z,1029.32
2019-03-23T01:30:49.225Z,1029.33
2019-03-23T01:31:49.318Z,1029.31
2019-03-23T01:32:48.961Z,1029.3
2019-03-23T01:33:49.104Z,1029.29
2019-03-23T01:34:48.993Z,1029.26
2019-03-23T01:35:48.985Z,1029.26
2019-03-23T01:36:49.100Z,1029.28
2019-03-23T01:37:49.072Z,1029.3
2019-03-23T01:38:49.018Z,1029.31
2019-03-23T01:39:49.063Z,1029.34
2019-03-23T01:40:49.069Z,1029.34
2019-03-23T01:41:49.071Z,1029.3
2019-03-23T01:42:50.227Z,1029.31
2019-03-23T01:43:49.168Z,1029.3
2019-03-23T01:44:49.098Z,1029.3
2019-03-23T01:45:49.114Z,1029.26
2019-03-23T01:46:49.160Z,1029.3
2019-03-23T01:47:49.304Z,1029.3
2019-03-23T01:48:49.176Z,1029.27
2019-03-23T01:49:49.193Z,1029.27
2019-03-23T01:50:48.962Z,1029.25
2019-03-23T01:51:48.966Z,1029.25
2019-03-23T01:52:48.990Z,1029.26
2019-03-23T01:53:49.013Z,1029.23
2019-03-23T01:54:49.037Z,1029.23
2019-03-23T01:55:49.038Z,1029.21
2019-03-23T01:56:49.053Z,1029.25
2019-03-23T01:57:49.080Z,1029.24
2019-03-23T01:58:49.100Z,1029.21
2019-03-23T01:59:49.108Z,1029.25
2019-03-23T02:00:49.171Z,1029.25
2019-03-23T02:01:49.143Z,1029.26
2019-03-23T02:02:49.127Z,1029.24
2019-03-23T02:03:49.242Z,1029.29
2019-03-23T02:04:49.154Z,1029.32
2019-03-23T02:05:49.280Z,1029.29
2019-03-23T02:06:49.349Z,1029.31
2019-03-23T02:07:49.320Z,1029.31
2019-03-23T02:08:49.207Z,1029.31
2019-03-23T02:09:48.977Z,1029.33
2019-03-23T02:10:48.951Z,1029.29
2019-03-23T02:11:49.153Z,1029.25
2019-03-23T02:12:49.005Z,1029.26
2019-03-23T02:13:49.155Z,1029.28
2019-03-23T02:14:49.015Z,1029.25
2019-03-23T02:15:49.033Z,1029.23
2019-03-23T02:16:49.194Z,1029.27
2019-03-23T02:17:49.093Z,1029.26
2019-03-23T02:18:49.169Z,1029.28
2019-03-23T02:19:49.081Z,1029.27
2019-03-23T02:20:49.257Z,1029.26
2019-03-23T02:21:49.102Z,1029.29
2019-03-23T02:22:49.192Z,1029.27
2019-03-23T02:23:49.124Z,1029.26
2019-03-23T02:24:49.268Z,1029.26
2019-03-23T02:25:49.163Z,1029.28
2019-03-23T02:26:48.975Z,1029.27
2019-03-23T02:27:49.052Z,1029.28
2019-03-23T02:28:49.063Z,1029.27
2019-03-23T02:29:49.083Z,1029.26
2019-03-23T02:30:49.134Z,1029.29
2019-03-23T02:31:49.033Z,1029.27
2019-03-23T02:32:49.084Z,1029.26
2019-03-23T02:33:49.034Z,1029.27
2019-03-23T02:34:49.104Z,1029.27
2019-03-23T02:35:49.098Z,1029.29
2019-03-23T02:36:49.102Z,1029.29
2019-03-23T02:37:49.265Z,1029.28
2019-03-23T02:38:49.094Z,1029.3
2019-03-23T02:39:49.106Z,1029.33
2019-03-23T02:40:49.228Z,1029.29
2019-03-23T02:41:49.231Z,1029.28
2019-03-23T02:42:49.265Z,1029.26
2019-03-23T02:43:49.262Z,1029.25
2019-03-23T02:44:49.300Z,1029.22
2019-03-23T02:45:48.956Z,1029.24
2019-03-23T02:46:48.969Z,1029.23
2019-03-23T02:47:48.957Z,1029.22
2019-03-23T02:48:48.965Z,1029.22
2019-03-23T02:49:49.524Z,1029.23
2019-03-23T02:50:49.660Z,1029.21
2019-03-23T02:51:49.156Z,1029.23
2019-03-23T02:52:49.197Z,1029.21
2019-03-23T02:53:49.109Z,1029.22
2019-03-23T02:54:49.172Z,1029.2
2019-03-23T02:55:49.092Z,1029.18
2019-03-23T02:56:49.224Z,1029.2
2019-03-23T02:57:49.091Z,1029.2
2019-03-23T02:58:49.235Z,1029.19
2019-03-23T02:59:49.133Z,1029.2
2019-03-23T03:00:49.206Z,1029.15
2019-03-23T03:01:49.155Z,1029.19
2019-03-23T03:02:49.136Z,1029.2
2019-03-23T03:03:49.014Z,1029.19
2019-03-23T03:04:49.038Z,1029.18
2019-03-23T03:05:49.089Z,1029.22
2019-03-23T03:06:49.095Z,1029.2
2019-03-23T03:07:49.020Z,1029.17
2019-03-23T03:08:49.098Z,1029.23
2019-03-23T03:09:49.211Z,1029.2
2019-03-23T03:10:49.108Z,1029.2
2019-03-23T03:11:49.233Z,1029.2
2019-03-23T03:12:49.061Z,1029.22
2019-03-23T03:13:49.109Z,1029.24
2019-03-23T03:14:49.203Z,1029.28
2019-03-23T03:15:49.205Z,1029.28
2019-03-23T03:16:49.263Z,1029.26
2019-03-23T03:17:49.118Z,1029.29
2019-03-23T03:18:49.152Z,1029.3
2019-03-23T03:19:49.147Z,1029.28
2019-03-23T03:20:49.192Z,1029.25
2019-03-23T03:21:49.262Z,1029.28
2019-03-23T03:22:49.036Z,1029.28
2019-03-23T03:23:48.969Z,1029.26
2019-03-23T03:24:49.056Z,1029.26
2019-03-23T03:25:49.035Z,1029.27
2019-03-23T03:26:49.165Z,1029.29
2019-03-23T03:27:48.979Z,1029.29
2019-03-23T03:28:49.279Z,1029.28
2019-03-23T03:29:49.037Z,1029.3
2019-03-23T03:30:49.204Z,1029.29
2019-03-23T03:31:49.040Z,1029.27
2019-03-23T03:32:49.095Z,1029.29
2019-03-23T03:33:49.331Z,1029.3
2019-03-23T03:34:49.562Z,1029.31
2019-03-23T03:35:49.153Z,1029.29
2019-03-23T03:36:49.274Z,1029.23
2019-03-23T03:37:57.548Z,1029.27
2019-03-23T03:38:49.157Z,1029.26
2019-03-23T03:39:49.028Z,1029.26
2019-03-23T03:40:48.952Z,1029.29
2019-03-23T03:41:48.953Z,1029.28
2019-03-23T03:42:49.103Z,1029.27
2019-03-23T03:43:49.122Z,1029.27
2019-03-23T03:44:49.086Z,1029.26
2019-03-23T03:45:49.076Z,1029.27
2019-03-23T03:46:49.016Z,1029.28
2019-03-23T03:47:49.133Z,1029.26
2019-03-23T03:48:49.415Z,1029.27
2019-03-23T03:49:49.175Z,1029.26
2019-03-23T03:50:49.166Z,1029.25
2019-03-23T03:51:49.186Z,1029.27
2019-03-23T03:52:49.222Z,1029.26
2019-03-23T03:53:49.244Z,1029.26
2019-03-23T03:54:49.274Z,1029.2
2019-03-23T03:55:49.446Z,1029.21
2019-03-23T03:56:51.074Z,1029.19
2019-03-23T03:57:49.107Z,1029.21
2019-03-23T03:58:49.005Z,1029.21
2019-03-23T03:59:48.943Z,1029.18
2019-03-23T04:00:49.180Z,1029.16
2019-03-23T04:01:49.038Z,1029.19
2019-03-23T04:02:48.997Z,1029.18
2019-03-23T04:03:49.111Z,1029.17
2019-03-23T04:04:48.999Z,1029.2
2019-03-23T04:05:49.333Z,1029.19
2019-03-23T04:06:49.236Z,1029.2
2019-03-23T04:07:49.141Z,1029.21
2019-03-23T04:08:49.246Z,1029.22
2019-03-23T04:09:49.240Z,1029.26
2019-03-23T04:10:49.106Z,1029.24
2019-03-23T04:11:49.151Z,1029.21
2019-03-23T04:12:49.157Z,1029.23
2019-03-23T04:13:49.193Z,1029.24
2019-03-23T04:14:49.106Z,1029.27
2019-03-23T04:15:48.996Z,1029.24
2019-03-23T04:16:49.019Z,1029.25
2019-03-23T04:17:49.081Z,1029.27
2019-03-23T04:18:49.069Z,1029.3
2019-03-23T04:19:49.100Z,1029.32
2019-03-23T04:20:49.033Z,1029.34
2019-03-23T04:21:49.219Z,1029.37
2019-03-23T04:22:49.051Z,1029.38
2019-03-23T04:23:49.200Z,1029.35
2019-03-23T04:24:49.174Z,1029.36
2019-03-23T04:25:49.217Z,1029.39
2019-03-23T04:26:49.224Z,1029.39
2019-03-23T04:27:49.355Z,1029.39
2019-03-23T04:28:49.104Z,1029.39
2019-03-23T04:29:49.233Z,1029.39
2019-03-23T04:30:49.266Z,1029.37
2019-03-23T04:31:49.113Z,1029.38
2019-03-23T04:32:49.247Z,1029.41
2019-03-23T04:33:48.926Z,1029.43
2019-03-23T04:34:48.949Z,1029.4
2019-03-23T04:35:48.950Z,1029.41
2019-03-23T04:36:49.032Z,1029.4
2019-03-23T04:37:48.948Z,1029.42
2019-03-23T04:38:48.948Z,1029.41
2019-03-23T04:39:49.543Z,1029.41
2019-03-23T04:40:49.134Z,1029.42
2019-03-23T04:41:49.073Z,1029.4
2019-03-23T04:42:49.074Z,1029.4
2019-03-23T04:43:49.166Z,1029.4
2019-03-23T04:44:49.011Z,1029.35
2019-03-23T04:45:49.183Z,1029.33
2019-03-23T04:46:49.086Z,1029.38
2019-03-23T04:47:49.053Z,1029.34
2019-03-23T04:48:49.144Z,1029.38
2019-03-23T04:49:49.096Z,1029.34
2019-03-23T04:50:49.089Z,1029.39
2019-03-23T04:51:49.059Z,1029.37
2019-03-23T04:52:48.964Z,1029.4
2019-03-23T04:53:48.959Z,1029.38
2019-03-23T04:54:49.033Z,1029.4
2019-03-23T04:55:49.041Z,1029.4
2019-03-23T04:56:49.006Z,1029.39
2019-03-23T04:57:49.092Z,1029.39
2019-03-23T04:58:49.126Z,1029.37
2019-03-23T04:59:49.112Z,1029.4
2019-03-23T05:00:49.686Z,1029.37
2019-03-23T05:01:49.134Z,1029.38
2019-03-23T05:02:49.157Z,1029.32
2019-03-23T05:03:49.128Z,1029.36
2019-03-23T05:04:49.181Z,1029.34
2019-03-23T05:05:49.193Z,1029.37
2019-03-23T05:06:49.222Z,1029.37
2019-03-23T05:07:49.106Z,1029.37
2019-03-23T05:08:49.248Z,1029.36
2019-03-23T05:09:48.900Z,1029.34
2019-03-23T05:10:49.078Z,1029.38
2019-03-23T05:11:48.912Z,1029.34
2019-03-23T05:12:49.067Z,1029.38
2019-03-23T05:13:49.104Z,1029.4
2019-03-23T05:14:49.137Z,1029.38
2019-03-23T05:15:48.967Z,1029.35
2019-03-23T05:16:49.119Z,1029.41
2019-03-23T05:17:49.057Z,1029.44
2019-03-23T05:18:49.035Z,1029.43
2019-03-23T05:19:49.062Z,1029.44
2019-03-23T05:20:49.019Z,1029.42
2019-03-23T05:21:49.039Z,1029.46
2019-03-23T05:22:49.049Z,1029.43
2019-03-23T05:23:49.203Z,1029.45
2019-03-23T05:24:49.091Z,1029.43
2019-03-23T05:25:49.079Z,1029.45
2019-03-23T05:26:50.214Z,1029.49
2019-03-23T05:27:49.300Z,1029.54
2019-03-23T05:28:49.030Z,1029.53
2019-03-23T05:29:49.030Z,1029.52
2019-03-23T05:30:49.208Z,1029.52
2019-03-23T05:31:49.041Z,1029.55
2019-03-23T05:32:49.074Z,1029.58
2019-03-23T05:33:49.093Z,1029.56
2019-03-23T05:34:49.052Z,1029.6
2019-03-23T05:35:49.095Z,1029.6
2019-03-23T05:36:49.014Z,1029.58
2019-03-23T05:37:49.085Z,1029.59
2019-03-23T05:38:49.187Z,1029.64
2019-03-23T05:39:49.151Z,1029.61
2019-03-23T05:40:49.128Z,1029.62
2019-03-23T05:41:49.167Z,1029.6
2019-03-23T05:42:49.204Z,1029.61
2019-03-23T05:43:49.585Z,1029.63
2019-03-23T05:44:49.197Z,1029.59
2019-03-23T05:45:49.015Z,1029.59
2019-03-23T05:46:49.011Z,1029.63
2019-03-23T05:47:48.901Z,1029.66
2019-03-23T05:48:48.917Z,1029.65
2019-03-23T05:49:49.094Z,1029.63
2019-03-23T05:50:49.062Z,1029.62
2019-03-23T05:51:48.977Z,1029.58
2019-03-23T05:52:48.977Z,1029.62
2019-03-23T05:53:49.090Z,1029.64
2019-03-23T05:54:49.135Z,1029.61
2019-03-23T05:55:49.071Z,1029.62
2019-03-23T05:56:49.153Z,1029.59
2019-03-23T05:57:49.132Z,1029.56
2019-03-23T05:58:49.076Z,1029.58
2019-03-23T05:59:49.133Z,1029.65
2019-03-23T06:00:49.217Z,1029.61
2019-03-23T06:01:49.163Z,1029.63
2019-03-23T06:02:49.113Z,1029.62
2019-03-23T06:03:48.891Z,1029.64
2019-03-23T06:04:48.887Z,1029.67
2019-03-23T06:05:48.928Z,1029.66
2019-03-23T06:06:49.806Z,1029.7
2019-03-23T06:07:49.046Z,1029.74
2019-03-23T06:08:55.706Z,1029.71
2019-03-23T06:09:49.112Z,1029.76
2019-03-23T06:10:49.071Z,1029.75
2019-03-23T06:11:49.315Z,1029.72
2019-03-23T06:12:49.049Z,1029.75
2019-03-23T06:13:49.224Z,1029.74
2019-03-23T06:14:49.223Z,1029.72
2019-03-23T06:15:49.185Z,1029.77
2019-03-23T06:16:49.596Z,1029.74
2019-03-23T06:17:49.159Z,1029.74
2019-03-23T06:18:49.333Z,1029.73
2019-03-23T06:19:49.228Z,1029.73
2019-03-23T06:20:48.969Z,1029.73
2019-03-23T06:21:49.031Z,1029.77
2019-03-23T06:22:49.257Z,1029.79
2019-03-23T06:23:49.159Z,1029.83
2019-03-23T06:24:48.992Z,1029.81
2019-03-23T06:25:48.926Z,1029.82
2019-03-23T06:26:48.985Z,1029.85
2019-03-23T06:27:49.642Z,1029.86
2019-03-23T06:28:48.989Z,1029.89
2019-03-23T06:29:49.069Z,1029.87
2019-03-23T06:30:49.153Z,1029.86
2019-03-23T06:31:49.160Z,1029.85
2019-03-23T06:32:49.093Z,1029.88
2019-03-23T06:33:49.163Z,1029.89
2019-03-23T06:34:49.156Z,1029.94
2019-03-23T06:35:49.090Z,1029.92
2019-03-23T06:36:49.215Z,1029.93
2019-03-23T06:37:49.486Z,1029.94
2019-03-23T06:38:48.872Z,1029.92
2019-03-23T06:39:49.053Z,1029.9
2019-03-23T06:40:48.917Z,1029.86
2019-03-23T06:41:48.900Z,1029.92
2019-03-23T06:43:00.175Z,1029.89
2019-03-23T06:43:49.241Z,1029.88
2019-03-23T06:44:49.036Z,1029.9
2019-03-23T06:45:49.070Z,1029.91
2019-03-23T06:46:49.057Z,1029.87
2019-03-23T06:47:49.039Z,1029.89
2019-03-23T06:48:49.030Z,1029.9
2019-03-23T06:49:49.794Z,1029.91
2019-03-23T06:50:49.139Z,1029.96
2019-03-23T06:51:49.132Z,1029.95
2019-03-23T06:52:49.074Z,1029.98
2019-03-23T06:53:49.164Z,1029.96
2019-03-23T06:54:49.388Z,1029.96
2019-03-23T06:55:49.406Z,1029.96
2019-03-23T06:56:48.787Z,1029.96
2019-03-23T06:57:48.957Z,1029.99
2019-03-23T06:58:48.836Z,1029.97
2019-03-23T06:59:49.062Z,1030.01
2019-03-23T07:00:49.097Z,1030
2019-03-23T07:01:49.139Z,1029.99
2019-03-23T07:02:48.991Z,1029.97
2019-03-23T07:03:49.020Z,1029.98
2019-03-23T07:04:49.127Z,1029.96
2019-03-23T07:05:49.124Z,1029.98
2019-03-23T07:06:49.116Z,1029.95
2019-03-23T07:07:49.141Z,1030.01
2019-03-23T07:08:49.152Z,1030.01
2019-03-23T07:09:49.209Z,1030.03
2019-03-23T07:10:49.502Z,1030.02
2019-03-23T07:11:49.195Z,1030.04
2019-03-23T07:12:49.170Z,1030.02
2019-03-23T07:13:49.147Z,1030.04
2019-03-23T07:14:48.873Z,1030.04
2019-03-23T07:15:48.901Z,1030.04
2019-03-23T07:16:48.911Z,1030.01
2019-03-23T07:17:48.909Z,1030.09
2019-03-23T07:18:49.002Z,1030.06
2019-03-23T07:19:49.044Z,1030.08
2019-03-23T07:20:49.194Z,1030.07
2019-03-23T07:21:49.021Z,1030.09
2019-03-23T07:22:49.068Z,1030.1
2019-03-23T07:23:49.094Z,1030.08
2019-03-23T07:24:49.099Z,1030.06
2019-03-23T07:25:49.049Z,1030.06
2019-03-23T07:26:49.325Z,1030.09
2019-03-23T07:27:49.253Z,1030.04
2019-03-23T07:28:49.150Z,1030.09
2019-03-23T07:29:49.073Z,1030.07
2019-03-23T07:30:49.146Z,1030.06
2019-03-23T07:31:49.180Z,1030.05
2019-03-23T07:32:49.972Z,1030.04
2019-03-23T07:33:49.016Z,1030.05
2019-03-23T07:34:48.916Z,1030.05
2019-03-23T07:35:49.031Z,1030.03
2019-03-23T07:36:49.000Z,1030.09
2019-03-23T07:37:49.064Z,1030.05
2019-03-23T07:38:49.072Z,1030.09
2019-03-23T07:39:49.125Z,1030.13
2019-03-23T07:40:49.056Z,1030.14
2019-03-23T07:41:49.063Z,1030.15
2019-03-23T07:42:48.955Z,1030.17
2019-03-23T07:43:48.992Z,1030.19
2019-03-23T07:44:49.099Z,1030.21
2019-03-23T07:45:49.008Z,1030.23
2019-03-23T07:46:49.194Z,1030.29
2019-03-23T07:47:49.152Z,1030.3
2019-03-23T07:48:49.186Z,1030.27
2019-03-23T07:49:48.960Z,1030.28
2019-03-23T07:50:48.943Z,1030.28
2019-03-23T07:51:49.060Z,1030.32
2019-03-23T07:52:48.946Z,1030.33
2019-03-23T07:53:48.899Z,1030.35
2019-03-23T07:54:48.974Z,1030.35
2019-03-23T07:55:48.955Z,1030.33
2019-03-23T07:56:48.956Z,1030.37
2019-03-23T07:57:48.945Z,1030.33
2019-03-23T07:58:48.977Z,1030.35
2019-03-23T07:59:49.067Z,1030.34
2019-03-23T08:00:49.244Z,1030.39
2019-03-23T08:01:49.165Z,1030.45
2019-03-23T08:02:49.157Z,1030.42
2019-03-23T08:03:49.029Z,1030.41
2019-03-23T08:04:49.027Z,1030.44
2019-03-23T08:05:49.169Z,1030.45
2019-03-23T08:06:48.908Z,1030.45
2019-03-23T08:07:48.919Z,1030.48
2019-03-23T08:08:48.903Z,1030.49
2019-03-23T08:09:48.844Z,1030.49
2019-03-23T08:10:49.129Z,1030.5
2019-03-23T08:11:49.039Z,1030.51
2019-03-23T08:12:48.883Z,1030.51
2019-03-23T08:13:48.907Z,1030.52
2019-03-23T08:14:49.073Z,1030.47
2019-03-23T08:15:49.011Z,1030.48
2019-03-23T08:16:48.845Z,1030.46
2019-03-23T08:17:48.944Z,1030.48
2019-03-23T08:18:48.944Z,1030.47
2019-03-23T08:19:49.101Z,1030.51
2019-03-23T08:20:49.014Z,1030.48
2019-03-23T08:21:49.148Z,1030.5
2019-03-23T08:22:49.093Z,1030.47
2019-03-23T08:23:49.188Z,1030.47
2019-03-23T08:24:48.811Z,1030.5
2019-03-23T08:25:48.848Z,1030.45
2019-03-23T08:26:48.925Z,1030.44
2019-03-23T08:27:48.943Z,1030.46
2019-03-23T08:28:49.185Z,1030.41
2019-03-23T08:29:48.875Z,1030.42
2019-03-23T08:30:48.976Z,1030.42
2019-03-23T08:31:48.909Z,1030.41
2019-03-23T08:32:49.020Z,1030.43
2019-03-23T08:33:48.925Z,1030.41
2019-03-23T08:34:48.932Z,1030.39
2019-03-23T08:35:48.983Z,1030.37
2019-03-23T08:36:48.976Z,1030.38
2019-03-23T08:37:49.306Z,1030.4
2019-03-23T08:38:48.995Z,1030.35
2019-03-23T08:39:49.222Z,1030.39
2019-03-23T08:40:49.102Z,1030.36
2019-03-23T08:41:49.056Z,1030.37
2019-03-23T08:42:49.029Z,1030.37
2019-03-23T08:43:48.813Z,1030.37
2019-03-23T08:44:48.786Z,1030.35
2019-03-23T08:45:48.809Z,1030.33
2019-03-23T08:46:48.889Z,1030.35
2019-03-23T08:47:48.803Z,1030.32
2019-03-23T08:48:48.849Z,1030.28
2019-03-23T08:49:48.923Z,1030.26
2019-03-23T08:50:48.916Z,1030.28
2019-03-23T08:51:49.052Z,1030.28
2019-03-23T08:52:48.937Z,1030.26
2019-03-23T08:53:48.927Z,1030.22
2019-03-23T08:54:49.050Z,1030.28
2019-03-23T08:55:49.006Z,1030.28
2019-03-23T08:56:49.048Z,1030.26
2019-03-23T08:57:48.965Z,1030.28
2019-03-23T08:58:50.102Z,1030.25
2019-03-23T08:59:49.172Z,1030.25
2019-03-23T09:00:49.146Z,1030.21
2019-03-23T09:01:48.804Z,1030.21
2019-03-23T09:02:48.855Z,1030.24
2019-03-23T09:03:52.971Z,1030.22
2019-03-23T09:04:48.947Z,1030.22
2019-03-23T09:05:48.884Z,1030.23
2019-03-23T09:06:49.011Z,1030.27
2019-03-23T09:07:48.996Z,1030.24
2019-03-23T09:08:49.064Z,1030.28
2019-03-23T09:09:59.670Z,1030.31
2019-03-23T09:10:48.989Z,1030.32
2019-03-23T09:11:49.061Z,1030.3
2019-03-23T09:12:49.110Z,1030.3
2019-03-23T09:13:49.109Z,1030.31
2019-03-23T09:14:49.001Z,1030.32
2019-03-23T09:15:49.108Z,1030.32
2019-03-23T09:16:49.097Z,1030.28
2019-03-23T09:17:49.081Z,1030.32
2019-03-23T09:18:49.057Z,1030.33
2019-03-23T09:19:49.942Z,1030.33
2019-03-23T09:20:49.961Z,1030.31
2019-03-23T09:21:48.941Z,1030.31
2019-03-23T09:22:48.863Z,1030.29
2019-03-23T09:23:48.825Z,1030.3
2019-03-23T09:24:48.892Z,1030.29
2019-03-23T09:25:48.885Z,1030.29
2019-03-23T09:26:48.897Z,1030.26
2019-03-23T09:27:48.982Z,1030.23
2019-03-23T09:28:48.960Z,1030.25
2019-03-23T09:29:48.909Z,1030.24
2019-03-23T09:30:48.942Z,1030.2
2019-03-23T09:31:48.979Z,1030.24
2019-03-23T09:32:49.146Z,1030.24
2019-03-23T09:33:49.021Z,1030.26
2019-03-23T09:34:48.985Z,1030.26
2019-03-23T09:35:48.978Z,1030.31
2019-03-23T09:36:49.027Z,1030.3
2019-03-23T09:37:48.912Z,1030.28
2019-03-23T09:38:48.824Z,1030.26
2019-03-23T09:39:48.806Z,1030.25
2019-03-23T09:40:48.864Z,1030.26
2019-03-23T09:41:48.962Z,1030.23
2019-03-23T09:42:49.046Z,1030.19
2019-03-23T09:43:49.197Z,1030.24
2019-03-23T09:44:48.995Z,1030.21
2019-03-23T09:45:48.939Z,1030.2
2019-03-23T09:46:48.998Z,1030.19
2019-03-23T09:47:48.966Z,1030.21
2019-03-23T09:48:48.949Z,1030.19
2019-03-23T09:49:49.217Z,1030.16
2019-03-23T09:50:48.943Z,1030.17
2019-03-23T09:51:48.996Z,1030.14
2019-03-23T09:52:49.009Z,1030.11
2019-03-23T09:53:49.022Z,1030.1
2019-03-23T09:54:48.863Z,1030.09
2019-03-23T09:55:48.845Z,1030.08
2019-03-23T09:56:48.873Z,1030.05
2019-03-23T09:57:48.823Z,1030.04
2019-03-23T09:58:49.094Z,1030.05
2019-03-23T09:59:48.951Z,1030.04
2019-03-23T10:00:48.893Z,1030.06
2019-03-23T10:01:49.067Z,1030.04
2019-03-23T10:02:48.908Z,1030.05
2019-03-23T10:03:48.958Z,1030.06
2019-03-23T10:04:48.801Z,1030.08
2019-03-23T10:05:49.100Z,1030.08
2019-03-23T10:06:48.984Z,1030.09
2019-03-23T10:07:49.059Z,1030.12
2019-03-23T10:08:48.997Z,1030.11
2019-03-23T10:09:49.030Z,1030.1
2019-03-23T10:10:48.843Z,1030.09
2019-03-23T10:11:48.806Z,1030.07
2019-03-23T10:12:48.964Z,1030.04
2019-03-23T10:13:48.977Z,1030.09
2019-03-23T10:14:48.863Z,1030.09
2019-03-23T10:15:48.881Z,1030.08
2019-03-23T10:16:48.929Z,1030.03
2019-03-23T10:17:49.014Z,1030.04
2019-03-23T10:18:48.892Z,1030.02
2019-03-23T10:19:48.995Z,1030.03
2019-03-23T10:20:49.156Z,1030.04
2019-03-23T10:21:50.891Z,1030.01
2019-03-23T10:22:49.006Z,1030
2019-03-23T10:23:49.292Z,1030
2019-03-23T10:24:49.046Z,1029.99
2019-03-23T10:25:49.029Z,1030
2019-03-23T10:26:48.823Z,1030.04
2019-03-23T10:27:48.775Z,1030
2019-03-23T10:28:48.987Z,1029.96
2019-03-23T10:29:48.842Z,1029.99
2019-03-23T10:30:48.847Z,1029.96
2019-03-23T10:31:49.055Z,1029.93
2019-03-23T10:32:48.849Z,1029.94
2019-03-23T10:33:48.981Z,1029.93
2019-03-23T10:34:49.014Z,1029.93
2019-03-23T10:35:48.909Z,1029.88
2019-03-23T10:36:49.023Z,1029.88
2019-03-23T10:37:48.958Z,1029.9
2019-03-23T10:38:49.014Z,1029.86
2019-03-23T10:39:48.984Z,1029.84
2019-03-23T10:40:48.788Z,1029.81
2019-03-23T10:41:49.086Z,1029.8
2019-03-23T10:42:48.893Z,1029.83
2019-03-23T10:43:48.822Z,1029.79
2019-03-23T10:44:48.979Z,1029.79
2019-03-23T10:45:48.868Z,1029.77
2019-03-23T10:46:48.889Z,1029.76
2019-03-23T10:47:49.522Z,1029.82
2019-03-23T10:48:48.819Z,1029.78
2019-03-23T10:49:48.901Z,1029.78
2019-03-23T10:50:49.021Z,1029.77
2019-03-23T10:51:49.037Z,1029.74
2019-03-23T10:52:48.958Z,1029.71
2019-03-23T10:53:49.107Z,1029.7
2019-03-23T10:54:49.020Z,1029.72
2019-03-23T10:55:49.028Z,1029.67
2019-03-23T10:56:48.786Z,1029.71
2019-03-23T10:57:49.166Z,1029.68
2019-03-23T10:58:48.784Z,1029.65
2019-03-23T10:59:48.787Z,1029.71
2019-03-23T11:00:48.899Z,1029.66
2019-03-23T11:01:48.812Z,1029.66
2019-03-23T11:02:48.811Z,1029.7
2019-03-23T11:03:48.826Z,1029.66
2019-03-23T11:04:49.163Z,1029.65
2019-03-23T11:05:48.893Z,1029.64
2019-03-23T11:06:48.809Z,1029.65
2019-03-23T11:07:48.891Z,1029.7
2019-03-23T11:08:48.897Z,1029.68
2019-03-23T11:09:48.946Z,1029.67
2019-03-23T11:10:49.012Z,1029.68
2019-03-23T11:11:49.015Z,1029.6
2019-03-23T11:12:49.603Z,1029.61
2019-03-23T11:13:48.990Z,1029.62
2019-03-23T11:14:48.794Z,1029.64
2019-03-23T11:15:48.850Z,1029.61
2019-03-23T11:16:48.885Z,1029.67
2019-03-23T11:17:49.106Z,1029.65
2019-03-23T11:18:48.888Z,1029.63
2019-03-23T11:19:48.972Z,1029.64
2019-03-23T11:20:48.762Z,1029.65
2019-03-23T11:21:49.033Z,1029.64
2019-03-23T11:22:48.945Z,1029.65
2019-03-23T11:23:49.114Z,1029.62
2019-03-23T11:24:49.053Z,1029.64
2019-03-23T11:25:49.255Z,1029.6
2019-03-23T11:26:49.211Z,1029.6
2019-03-23T11:27:48.980Z,1029.58
2019-03-23T11:28:49.009Z,1029.63
2019-03-23T11:29:49.047Z,1029.65
2019-03-23T11:30:48.753Z,1029.65
2019-03-23T11:31:48.881Z,1029.55
2019-03-23T11:32:48.803Z,1029.6
2019-03-23T11:33:48.882Z,1029.57
2019-03-23T11:34:48.837Z,1029.58
2019-03-23T11:35:58.373Z,1029.59
2019-03-23T11:36:49.038Z,1029.57
2019-03-23T11:37:49.729Z,1029.56
2019-03-23T11:38:48.878Z,1029.54
2019-03-23T11:39:49.041Z,1029.52
2019-03-23T11:40:55.485Z,1029.54
2019-03-23T11:41:48.880Z,1029.5
2019-03-23T11:42:50.721Z,1029.53
2019-03-23T11:43:48.956Z,1029.5
2019-03-23T11:44:49.336Z,1029.54
2019-03-23T11:45:49.235Z,1029.54
2019-03-23T11:46:49.115Z,1029.55
2019-03-23T11:47:49.065Z,1029.56
2019-03-23T11:48:48.874Z,1029.54
2019-03-23T11:49:48.811Z,1029.55
2019-03-23T11:50:48.912Z,1029.51
2019-03-23T11:51:48.940Z,1029.53
2019-03-23T11:52:48.858Z,1029.51
2019-03-23T11:53:48.875Z,1029.46
2019-03-23T11:54:48.905Z,1029.45
2019-03-23T11:55:48.908Z,1029.42
2019-03-23T11:56:49.027Z,1029.43
2019-03-23T11:57:49.036Z,1029.45
2019-03-23T11:58:48.799Z,1029.45
2019-03-23T11:59:49.048Z,1029.46
2019-03-23T12:00:49.078Z,1029.43
2019-03-23T12:01:52.391Z,1029.47
2019-03-23T12:02:48.816Z,1029.51
2019-03-23T12:03:48.763Z,1029.49
2019-03-23T12:04:48.867Z,1029.48
2019-03-23T12:05:48.926Z,1029.46
2019-03-23T12:06:48.774Z,1029.48
2019-03-23T12:07:48.873Z,1029.46
2019-03-23T12:08:49.408Z,1029.47